Time;durP1;ratioP1;P1;durP2;ratioP2;P2;SDS_P1;SDS_P2;PMS_P1;PMS_P2;Temp;Humidity;BMP_temperature;BMP_pressure;BME280_temperature;BME280_humidity;BME280_pressure;Samples;Min_cycle;Max_cycle;Signal;HPM_P1;HPM_P2
2021/04/20 00:02:25;;;;;;;14.98;7.47;;;;;;;8.32;64.88;100708.22;4935751;29;20075;-82
2021/04/20 00:05:16;;;;;;;11.38;7.00;;;;;;;8.46;64.78;100709.03;4953081;28;20411;-82
2021/04/20 00:08:01;;;;;;;21.58;9.52;;;;;;;8.27;64.73;100709.09;4949330;28;20046;-82
2021/04/20 00:10:46;;;;;;;12.50;7.55;;;;;;;8.19;65.87;100701.63;4954062;28;20074;-82
2021/04/20 00:13:32;;;;;;;11.20;7.38;;;;;;;8.09;66.19;100704.53;4940129;29;20050;-82
2021/04/20 00:16:17;;;;;;;19.35;10.32;;;;;;;8.07;65.97;100696.72;4938469;29;20054;-81
2021/04/20 00:19:05;;;;;;;18.17;10.80;;;;;;;7.97;66.58;100696.91;4949900;29;20043;-81
2021/04/20 00:21:50;;;;;;;17.05;10.60;;;;;;;8.14;66.04;100688.19;4924594;29;20059;-82
2021/04/20 00:24:35;;;;;;;17.60;9.80;;;;;;;7.94;66.42;100685.84;4937842;29;20039;-83
2021/04/20 00:27:20;;;;;;;11.40;7.53;;;;;;;7.97;67.27;100688.78;4936286;28;20522;-82
2021/04/20 00:30:06;;;;;;;16.30;8.73;;;;;;;7.89;66.86;100678.63;4954738;29;20037;-82
2021/04/20 00:32:53;;;;;;;20.83;10.48;;;;;;;8.03;66.05;100674.03;4951927;28;20054;-82
2021/04/20 00:35:37;;;;;;;17.10;10.85;;;;;;;8.15;65.61;100679.78;4938844;29;20523;-82
2021/04/20 00:38:23;;;;;;;15.65;10.00;;;;;;;8.18;66.06;100676.44;4952466;28;20051;-81
2021/04/20 00:41:09;;;;;;;12.65;7.95;;;;;;;8.21;65.61;100675.06;4936051;29;20031;-82
2021/04/20 00:43:55;;;;;;;15.38;10.57;;;;;;;8.27;65.68;100678.47;4948771;29;20050;-82
2021/04/20 00:46:39;;;;;;;13.57;6.97;;;;;;;8.11;65.87;100669.84;4940181;29;20043;-82
2021/04/20 00:49:25;;;;;;;13.40;7.97;;;;;;;8.17;65.21;100668.66;4941422;29;20053;-82
2021/04/20 00:52:10;;;;;;;18.52;9.38;;;;;;;8.18;66.33;100669.44;4930564;29;20059;-82
2021/04/20 00:54:55;;;;;;;12.35;7.93;;;;;;;7.99;65.96;100666.81;4960930;28;20054;-83
2021/04/20 00:57:40;;;;;;;17.00;9.25;;;;;;;8.05;65.74;100665.63;4961147;28;20054;-82
2021/04/20 01:00:29;;;;;;;14.52;8.20;;;;;;;8.28;65.43;100661.13;4964399;28;20050;-82
2021/04/20 01:03:14;;;;;;;19.52;10.52;;;;;;;8.25;65.24;100657.09;4962067;28;20062;-82
2021/04/20 01:06:01;;;;;;;18.35;9.77;;;;;;;8.14;65.84;100658.41;4944952;29;20043;-81
2021/04/20 01:08:47;;;;;;;21.73;11.93;;;;;;;7.93;66.08;100654.47;4944727;29;20054;-82
2021/04/20 01:11:35;;;;;;;15.15;10.30;;;;;;;7.66;67.72;100655.22;4962595;28;20058;-82
2021/04/20 01:14:20;;;;;;;16.58;10.52;;;;;;;7.69;67.64;100657.34;4945942;29;20039;-82
2021/04/20 01:17:05;;;;;;;14.90;10.00;;;;;;;7.95;66.65;100655.78;4940753;29;20043;-82
2021/04/20 01:19:52;;;;;;;17.05;8.73;;;;;;;7.84;66.23;100653.53;4962028;28;20047;-82
2021/04/20 01:22:41;;;;;;;20.13;9.80;;;;;;;7.88;66.40;100659.97;4960464;28;20054;-81
2021/04/20 01:25:25;;;;;;;17.63;9.27;;;;;;;7.72;66.84;100659.44;4942264;29;20046;-83
2021/04/20 01:28:10;;;;;;;;;;;;;;;7.62;67.05;100651.50;4941428;29;20051;-82
2021/04/20 01:30:57;;;;;;;16.40;9.90;;;;;;;7.74;66.45;100654.53;4939805;29;19915;-82
2021/04/20 01:33:43;;;;;;;15.18;9.77;;;;;;;7.70;66.77;100653.53;4947784;29;20062;-82
2021/04/20 01:36:28;;;;;;;;;;;;;;;7.58;67.49;100651.28;4946283;28;20050;-82
2021/04/20 01:39:14;;;;;;;15.80;7.93;;;;;;;7.53;67.56;100651.38;4944476;29;19914;-83
2021/04/20 01:41:58;;;;;;;11.75;7.20;;;;;;;7.64;67.21;100647.41;4943999;29;20042;-83
2021/04/20 01:44:44;;;;;;;15.50;9.30;;;;;;;7.77;66.96;100653.16;4943050;29;20051;-82
2021/04/20 01:47:29;;;;;;;13.88;9.32;;;;;;;7.57;66.95;100649.69;4999397;23;20076;-79
2021/04/20 01:50:14;;;;;;;10.65;6.80;;;;;;;7.57;67.86;100648.88;5003788;28;20061;-80
2021/04/20 01:53:00;;;;;;;16.08;8.80;;;;;;;7.52;67.29;100636.22;4996099;28;20041;-81
2021/04/20 01:55:46;;;;;;;10.15;6.45;;;;;;;7.68;67.23;100643.00;4981512;28;20049;-80
2021/04/20 01:58:32;;;;;;;13.10;8.77;;;;;;;7.60;67.48;100646.41;4996358;28;20053;-79
2021/04/20 02:01:24;;;;;;;12.05;8.70;;;;;;;7.58;68.58;100639.66;4981581;28;20053;-79
2021/04/20 02:04:09;;;;;;;15.43;8.80;;;;;;;7.64;67.22;100639.28;4978442;28;20050;-80
2021/04/20 02:06:54;;;;;;;9.35;6.65;;;;;;;7.48;67.28;100640.63;4978412;28;20049;-80
2021/04/20 02:09:40;;;;;;;13.88;8.93;;;;;;;7.36;67.79;100631.41;4981889;28;20418;-82
2021/04/20 02:12:26;;;;;;;17.13;9.18;;;;;;;7.33;67.19;100638.19;4967507;28;20050;-80
2021/04/20 02:15:17;;;;;;;13.25;8.65;;;;;;;7.34;67.57;100634.38;4983371;28;20054;-80
2021/04/20 02:18:02;;;;;;;13.85;8.30;;;;;;;7.33;67.05;100627.38;4979293;28;20053;-79
2021/04/20 02:20:48;;;;;;;12.85;8.55;;;;;;;7.69;67.51;100630.25;4980031;28;20118;-79
2021/04/20 02:23:35;;;;;;;13.45;7.72;;;;;;;7.79;66.92;100630.09;4998211;28;20571;-80
2021/04/20 02:26:31;;;;;;;13.27;7.82;;;;;;;7.88;65.82;100632.91;4997513;28;20041;-80
2021/04/20 02:29:16;;;;;;;;;;;;;;;7.76;66.22;100632.59;4960248;28;20050;-80
2021/04/20 02:32:00;;;;;;;11.10;6.50;;;;;;;7.66;66.30;100628.16;4963321;28;19914;-80
2021/04/20 02:34:45;;;;;;;8.40;5.38;;;;;;;7.62;65.96;100625.22;4980829;28;20414;-80
2021/04/20 02:37:34;;;;;;;15.30;6.38;;;;;;;7.67;65.55;100622.44;4983144;28;20043;-82
2021/04/20 02:40:24;;;;;;;11.68;7.07;;;;;;;7.71;65.52;100628.06;4983151;28;20561;-82
2021/04/20 02:43:10;;;;;;;18.95;8.15;;;;;;;7.74;64.72;100636.41;4963761;28;20070;-82
2021/04/20 02:46:01;;;;;;;19.73;5.93;;;;;;;7.81;64.59;100637.91;4987400;28;20049;-83
2021/04/20 02:48:49;;;;;;;9.57;6.50;;;;;;;7.63;65.00;100624.13;4989838;28;20418;-81
2021/04/20 02:51:35;;;;;;;15.20;7.30;;;;;;;7.57;65.44;100630.72;5006253;28;20053;-82
2021/04/20 02:54:20;;;;;;;12.95;6.55;;;;;;;7.60;65.17;100632.88;4985836;28;20049;-82
2021/04/20 02:57:08;;;;;;;7.95;4.85;;;;;;;7.58;64.95;100635.06;4967980;28;20061;-82
2021/04/20 02:59:53;;;;;;;15.73;7.03;;;;;;;7.35;65.82;100624.38;4989115;28;20077;-82
2021/04/20 03:02:40;;;;;;;11.15;6.20;;;;;;;7.36;65.84;100628.69;5000081;28;20418;-81
2021/04/20 03:05:28;;;;;;;11.57;6.93;;;;;;;7.34;65.69;100620.84;4988108;28;20061;-82
2021/04/20 03:08:13;;;;;;;9.35;5.82;;;;;;;7.23;66.49;100616.72;4983719;28;20057;-80
2021/04/20 03:11:06;;;;;;;;;;;;;;;7.31;65.88;100618.75;4950118;28;20045;-81
2021/04/20 03:13:51;;;;;;;11.35;6.55;;;;;;;7.32;65.90;100607.63;4969059;28;19910;-80
2021/04/20 03:16:36;;;;;;;10.02;6.28;;;;;;;7.41;65.42;100624.00;4981860;28;20045;-79
2021/04/20 03:19:22;;;;;;;10.57;6.88;;;;;;;7.40;65.08;100608.06;5000794;28;20060;-81
2021/04/20 03:22:08;;;;;;;9.60;4.85;;;;;;;7.12;65.95;100609.84;4986306;28;20045;-80
2021/04/20 03:25:06;;;;;;;8.73;5.43;;;;;;;7.07;66.08;100607.22;4997467;28;20049;-80
2021/04/20 03:27:54;;;;;;;9.10;5.70;;;;;;;7.14;66.08;100607.66;4996181;28;20650;-81
2021/04/20 03:30:39;;;;;;;8.68;5.57;;;;;;;7.20;65.79;100611.91;4984771;28;20045;-81
2021/04/20 03:33:32;;;;;;;6.93;4.38;;;;;;;7.21;66.91;100613.50;4981950;28;20049;-80
2021/04/20 03:36:25;;;;;;;7.70;5.05;;;;;;;7.51;66.44;100609.50;4999460;28;20077;-81
2021/04/20 03:39:18;;;;;;;7.32;5.43;;;;;;;7.47;66.13;100606.56;4998822;28;20410;-80
2021/04/20 03:42:09;;;;;;;7.90;5.63;;;;;;;7.24;66.00;100612.91;4996387;28;20053;-81
2021/04/20 03:44:57;;;;;;;7.68;5.60;;;;;;;7.19;66.04;100607.59;4987429;28;20053;-82
2021/04/20 03:47:49;;;;;;;9.45;5.65;;;;;;;7.44;65.99;100609.88;4982949;28;20049;-81
2021/04/20 03:50:37;;;;;;;8.70;6.25;;;;;;;7.57;65.89;100611.78;4977969;28;20045;-81
2021/04/20 03:53:24;;;;;;;9.68;6.35;;;;;;;7.47;67.09;100611.97;4982769;28;20058;-81
2021/04/20 03:56:12;;;;;;;11.65;7.20;;;;;;;7.43;66.74;100604.75;4983509;28;20050;-83
2021/04/20 03:59:01;;;;;;;11.15;7.75;;;;;;;7.48;66.66;100612.78;4987594;28;20053;-82
2021/04/20 04:01:50;;;;;;;13.65;9.38;;;;;;;7.46;66.78;100604.97;4985509;28;20430;-80
2021/04/20 04:04:36;;;;;;;17.73;11.10;;;;;;;7.35;66.89;100603.53;4985197;28;20065;-79
2021/04/20 04:07:21;;;;;;;23.45;10.85;;;;;;;7.19;67.44;100607.59;4982748;28;20407;-80
2021/04/20 04:10:07;;;;;;;10.70;7.13;;;;;;;7.23;67.75;100604.00;4983161;28;20050;-78
2021/04/20 04:12:59;;;;;;;21.52;10.20;;;;;;;7.10;68.21;100610.16;4963101;28;20411;-80
2021/04/20 04:15:45;;;;;;;19.35;11.65;;;;;;;7.13;67.65;100606.88;4991664;28;20419;-79
2021/04/20 04:18:32;;;;;;;27.02;11.63;;;;;;;7.02;68.32;100610.00;4974345;28;20046;-81
2021/04/20 04:21:23;;;;;;;25.70;12.57;;;;;;;7.12;68.24;100610.66;4986130;28;20050;-81
2021/04/20 04:24:10;;;;;;;20.73;12.18;;;;;;;7.05;68.56;100612.16;4983291;28;20034;-80
2021/04/20 04:27:01;;;;;;;19.20;13.00;;;;;;;6.97;68.94;100607.38;4992193;28;20422;-79
2021/04/20 04:29:47;;;;;;;25.98;13.98;;;;;;;6.79;70.48;100619.81;4963845;28;20057;-79
2021/04/20 04:32:35;;;;;;;22.80;14.43;;;;;;;6.84;70.92;100614.34;4977479;28;20050;-78
2021/04/20 04:35:21;;;;;;;21.77;13.35;;;;;;;6.83;71.37;100618.94;4996279;28;20038;-80
2021/04/20 04:38:06;;;;;;;24.52;13.30;;;;;;;6.76;71.26;100623.09;4993883;28;20061;-80
2021/04/20 04:40:52;;;;;;;22.55;13.65;;;;;;;6.92;71.33;100631.78;4984343;28;20050;-79
2021/04/20 04:43:40;;;;;;;26.83;14.45;;;;;;;6.71;72.37;100629.38;4997713;28;20042;-79
2021/04/20 04:46:25;;;;;;;26.08;13.13;;;;;;;6.76;72.36;100626.59;4994279;28;20050;-80
2021/04/20 04:49:11;;;;;;;20.25;11.65;;;;;;;6.46;72.23;100632.41;4992851;28;20059;-79
2021/04/20 04:51:57;;;;;;;19.50;12.90;;;;;;;6.93;71.81;100631.50;4995844;28;20514;-80
2021/04/20 04:54:43;;;;;;;29.15;16.60;;;;;;;7.21;70.60;100632.44;4995188;28;20050;-79
2021/04/20 04:57:29;;;;;;;27.73;13.15;;;;;;;7.51;69.57;100631.13;4959212;28;20038;-80
2021/04/20 05:00:16;;;;;;;23.10;13.43;;;;;;;7.64;69.16;100638.47;4993666;28;20537;-80
2021/04/20 05:03:05;;;;;;;22.08;12.88;;;;;;;7.66;68.65;100639.81;4983391;28;20042;-79
2021/04/20 05:05:57;;;;;;;22.77;12.65;;;;;;;7.57;68.79;100641.56;4992760;28;20038;-79
2021/04/20 05:08:42;;;;;;;22.40;13.15;;;;;;;7.68;68.96;100642.19;4989978;28;20038;-79
2021/04/20 05:11:28;;;;;;;27.55;13.48;;;;;;;7.87;68.72;100642.94;4984918;28;20498;-79
2021/04/20 05:14:15;;;;;;;21.52;14.50;;;;;;;7.95;67.74;100636.03;4991196;28;20041;-80
2021/04/20 05:17:00;;;;;;;25.98;13.65;;;;;;;7.98;67.88;100632.69;4993057;28;20037;-78
2021/04/20 05:19:47;;;;;;;20.95;10.77;;;;;;;8.28;66.18;100644.88;4979118;28;20053;-79
2021/04/20 05:22:34;;;;;;;23.95;13.43;;;;;;;8.28;66.20;100642.94;4976891;28;20050;-79
2021/04/20 05:25:19;;;;;;;22.38;13.13;;;;;;;8.53;65.35;100650.59;4988820;28;20046;-80
2021/04/20 05:28:06;;;;;;;24.20;13.52;;;;;;;9.08;63.89;100658.63;4998295;28;20038;-79
2021/04/20 05:30:53;;;;;;;32.00;13.85;;;;;;;9.10;63.66;100653.69;4982029;28;20050;-80
2021/04/20 05:33:39;;;;;;;24.55;15.85;;;;;;;8.11;67.12;100659.81;4984959;28;20042;-80
2021/04/20 05:36:26;;;;;;;19.65;12.35;;;;;;;8.56;66.44;100654.63;4987326;28;20041;-81
2021/04/20 05:39:11;;;;;;;21.67;13.52;;;;;;;8.87;65.47;100654.75;4976384;28;20057;-81
2021/04/20 05:41:56;;;;;;;25.25;11.90;;;;;;;9.25;64.29;100656.03;4983675;28;20042;-80
2021/04/20 05:44:41;;;;;;;19.45;10.68;;;;;;;9.73;63.46;100656.22;4994451;28;20426;-79
2021/04/20 05:47:26;;;;;;;17.95;11.55;;;;;;;9.46;64.20;100661.78;4992050;28;20541;-79
2021/04/20 05:50:21;;;;;;;25.42;13.90;;;;;;;9.66;64.31;100655.03;4963531;28;20054;-80
2021/04/20 05:53:10;;;;;;;17.33;10.35;;;;;;;10.16;62.79;100664.59;4975607;28;20043;-79
2021/04/20 05:55:58;;;;;;;23.63;14.35;;;;;;;10.66;61.14;100664.28;4977455;28;20043;-78
2021/04/20 05:58:45;;;;;;;21.80;13.55;;;;;;;10.89;60.28;100660.31;4977254;28;20055;-79
2021/04/20 06:01:34;;;;;;;22.98;15.00;;;;;;;11.47;57.59;100662.56;4975445;28;20051;-79
2021/04/20 06:04:21;;;;;;;23.33;14.52;;;;;;;13.50;52.12;100666.06;4987731;28;20042;-81
2021/04/20 06:07:06;;;;;;;21.25;10.73;;;;;;;14.04;50.16;100658.56;4996043;28;20039;-78
2021/04/20 06:09:51;;;;;;;17.30;11.95;;;;;;;14.77;48.12;100673.09;4984993;28;20038;-80
2021/04/20 06:12:37;;;;;;;21.65;14.23;;;;;;;15.46;45.56;100676.66;4983720;28;20050;-79
2021/04/20 06:15:24;;;;;;;23.92;15.23;;;;;;;14.68;47.84;100666.16;4979825;28;20046;-81
2021/04/20 06:18:10;;;;;;;19.05;13.63;;;;;;;16.03;44.49;100671.59;4979828;28;20403;-78
2021/04/20 06:20:58;;;;;;;20.95;12.70;;;;;;;16.68;42.86;100677.53;4986154;28;20506;-79
2021/04/20 06:23:45;;;;;;;22.75;12.93;;;;;;;17.37;40.71;100671.19;4988802;28;20050;-80
2021/04/20 06:26:36;;;;;;;17.85;13.02;;;;;;;18.58;38.43;100670.69;5006508;28;20542;-80
2021/04/20 06:29:21;;;;;;;20.77;12.63;;;;;;;18.60;37.88;100677.38;4996164;28;20042;-81
2021/04/20 06:32:08;;;;;;;;;;;;;;;18.05;38.63;100676.06;4985561;28;20050;-79
2021/04/20 06:34:53;;;;;;;22.13;11.52;;;;;;;19.89;34.95;100680.66;4997867;28;19917;-82
2021/04/20 06:37:42;;;;;;;28.63;10.15;;;;;;;17.05;40.42;100676.03;4997847;28;20038;-79
2021/04/20 06:40:34;;;;;;;12.73;9.63;;;;;;;18.28;46.47;100676.06;4987638;28;20503;-76
2021/04/20 06:43:53;;;;;;;16.23;11.05;;;;;;;17.93;48.82;100677.00;4994460;28;20116;-77
2021/04/20 06:46:51;;;;;;;16.27;9.88;;;;;;;17.53;47.68;100684.84;4981550;28;20498;-78
2021/04/20 06:49:42;;;;;;;15.13;9.75;;;;;;;17.49;48.03;100681.25;5001495;28;20418;-77
2021/04/20 06:53:10;;;;;;;16.00;10.32;;;;;;;17.58;47.62;100690.06;5005329;28;20068;-79
2021/04/20 06:56:06;;;;;;;16.15;10.27;;;;;;;17.77;47.08;100690.09;5000210;28;20033;-78
2021/04/20 06:59:23;;;;;;;19.45;11.63;;;;;;;17.91;45.42;100689.56;4991655;28;20046;-77
2021/04/20 07:02:51;;;;;;;17.35;11.60;;;;;;;18.37;44.68;100695.88;5001250;28;20503;-77
2021/04/20 07:05:39;;;;;;;15.35;10.75;;;;;;;18.95;44.12;100696.41;4990282;28;20042;-78
2021/04/20 07:08:28;;;;;;;19.67;11.13;;;;;;;19.42;43.02;100687.59;4996374;28;20495;-76
2021/04/20 07:11:15;;;;;;;18.88;10.65;;;;;;;19.80;41.48;100697.53;4999895;28;20042;-78
2021/04/20 07:14:03;;;;;;;15.15;9.88;;;;;;;20.42;40.60;100703.25;4996802;28;20034;-76
2021/04/20 07:16:59;;;;;;;13.95;9.23;;;;;;;20.99;39.00;100698.94;4995158;28;20046;-77
2021/04/20 07:20:09;;;;;;;15.20;10.38;;;;;;;21.64;37.21;100689.75;4984137;28;20054;-77
2021/04/20 07:23:15;;;;;;;18.38;9.75;;;;;;;22.02;34.59;100697.41;4996110;28;20046;-78
2021/04/20 07:26:19;;;;;;;15.05;9.50;;;;;;;22.52;33.26;100687.16;4998725;28;20072;-78
2021/04/20 07:29:34;;;;;;;15.38;9.57;;;;;;;22.91;31.87;100689.91;4996243;28;20046;-79
2021/04/20 07:32:37;;;;;;;16.23;10.25;;;;;;;23.25;30.82;100692.19;4983761;28;20053;-79
2021/04/20 07:35:32;;;;;;;14.23;9.73;;;;;;;23.79;30.52;100699.91;4995972;28;20046;-78
2021/04/20 07:38:31;;;;;;;16.83;9.77;;;;;;;24.21;29.84;100689.75;4999552;28;20053;-78
2021/04/20 07:41:44;;;;;;;16.48;10.10;;;;;;;24.83;28.49;100691.59;4981838;28;20422;-76
2021/04/20 07:44:32;;;;;;;13.88;8.13;;;;;;;25.12;27.47;100690.91;4984631;28;20038;-76
2021/04/20 07:47:21;;;;;;;11.57;7.93;;;;;;;25.71;28.09;100689.78;5006483;22;20020;-78
2021/04/20 07:50:16;;;;;;;14.50;8.50;;;;;;;26.06;25.97;100696.88;4996980;28;20043;-78
2021/04/20 07:53:15;;;;;;;12.18;8.20;;;;;;;26.29;25.55;100688.56;4994543;28;20419;-78
2021/04/20 07:56:11;;;;;;;19.92;8.70;;;;;;;26.44;25.17;100691.91;4990952;28;20064;-77
2021/04/20 07:58:59;;;;;;;15.15;8.77;;;;;;;26.77;23.85;100691.69;4984461;28;20490;-79
2021/04/20 08:01:58;;;;;;;14.40;8.60;;;;;;;27.30;24.12;100680.75;4995186;28;20044;-76
2021/04/20 08:05:10;;;;;;;11.85;7.43;;;;;;;27.56;22.96;100691.00;5005932;28;20049;-76
2021/04/20 08:08:12;;;;;;;12.23;7.43;;;;;;;28.38;22.40;100687.13;5005188;28;20034;-77
2021/04/20 08:10:57;;;;;;;16.60;8.88;;;;;;;28.51;22.06;100688.00;5006625;28;20056;-77
2021/04/20 08:13:57;;;;;;;21.63;8.73;;;;;;;28.52;21.58;100683.19;4988583;28;20518;-76
2021/04/20 08:16:50;;;;;;;11.48;7.38;;;;;;;27.42;23.83;100685.69;4993092;28;20038;-76
2021/04/20 08:19:46;;;;;;;12.93;7.90;;;;;;;26.51;24.22;100677.84;5004024;28;20045;-77
2021/04/20 08:22:32;;;;;;;15.82;8.07;;;;;;;25.69;24.64;100681.88;5004101;28;20165;-77
2021/04/20 08:25:35;;;;;;;9.95;8.13;;;;;;;25.70;25.62;100677.09;4991793;28;20407;-77
2021/04/20 08:28:30;;;;;;;9.77;7.85;;;;;;;25.81;24.62;100683.28;5005116;28;20048;-77
2021/04/20 08:31:24;;;;;;;;;;;;;;;25.70;25.08;100674.31;5008675;28;20525;-77
2021/04/20 08:34:41;;;;;;;10.98;8.25;;;;;;;24.91;26.22;100673.63;5007268;28;19913;-76
2021/04/20 08:37:35;;;;;;;12.82;7.85;;;;;;;24.77;26.59;100680.13;4995253;28;20422;-77
2021/04/20 08:40:37;;;;;;;12.80;7.68;;;;;;;24.09;27.92;100671.53;4990658;28;20045;-77
2021/04/20 08:43:39;;;;;;;15.60;9.05;;;;;;;25.40;26.45;100666.69;4995383;28;20423;-77
2021/04/20 08:46:52;;;;;;;13.38;9.25;;;;;;;26.26;25.49;100659.50;5008140;28;20038;-77
2021/04/20 08:50:12;;;;;;;15.60;10.02;;;;;;;26.96;24.38;100662.28;4994792;28;20042;-78
2021/04/20 08:53:28;;;;;;;11.20;8.20;;;;;;;27.39;24.69;100667.78;4995141;28;20042;-76
2021/04/20 08:56:34;;;;;;;16.17;9.23;;;;;;;27.18;23.45;100659.84;5010398;28;20049;-79
2021/04/20 08:59:28;;;;;;;13.05;8.45;;;;;;;27.43;23.48;100667.72;5004525;28;20042;-78
2021/04/20 09:02:37;;;;;;;12.30;8.27;;;;;;;28.26;23.83;100657.84;4993728;28;20503;-78
2021/04/20 09:05:56;;;;;;;14.43;9.60;;;;;;;28.58;22.09;100659.84;4991368;28;20046;-77
2021/04/20 09:08:46;;;;;;;10.70;8.70;;;;;;;28.60;22.49;100656.59;5006577;28;20422;-76
2021/04/20 09:11:38;;;;;;;12.27;9.32;;;;;;;27.59;22.75;100656.59;5006880;28;20076;-77
2021/04/20 09:14:35;;;;;;;11.10;8.20;;;;;;;27.78;23.34;100658.59;5003384;28;20112;-76
2021/04/20 09:17:28;;;;;;;14.75;9.07;;;;;;;28.00;21.96;100654.06;4992318;28;20506;-76
2021/04/20 09:20:28;;;;;;;13.90;8.43;;;;;;;28.79;22.37;100664.91;5005448;28;20041;-76
2021/04/20 09:23:32;;;;;;;13.25;8.93;;;;;;;29.41;20.77;100657.13;5006357;28;20045;-75
2021/04/20 09:26:41;;;;;;;11.35;8.35;;;;;;;28.63;22.34;100656.50;4990783;28;20536;-77
2021/04/20 09:29:32;;;;;;;14.65;9.80;;;;;;;28.26;21.71;100649.47;5007593;28;20045;-79
2021/04/20 09:32:25;;;;;;;10.50;7.43;;;;;;;29.60;21.06;100650.56;4992312;28;20049;-76
2021/04/20 09:35:14;;;;;;;10.25;7.65;;;;;;;31.28;19.68;100655.72;5002291;28;20042;-76
2021/04/20 09:38:01;;;;;;;13.25;9.93;;;;;;;30.90;18.15;100657.91;4992313;28;20042;-76
2021/04/20 09:40:48;;;;;;;14.77;10.00;;;;;;;30.42;18.69;100647.97;5005376;28;20049;-77
2021/04/20 09:43:48;;;;;;;12.40;9.43;;;;;;;31.73;18.34;100655.22;4981647;28;20038;-76
2021/04/20 09:46:50;;;;;;;13.43;7.60;;;;;;;32.78;15.52;100656.88;4996458;28;20635;-78
2021/04/20 09:49:57;;;;;;;15.52;8.60;;;;;;;33.57;15.31;100662.59;4978032;28;20034;-76
2021/04/20 09:53:00;;;;;;;20.23;12.15;;;;;;;33.22;14.40;100653.75;4985536;28;20035;-76
2021/04/20 09:55:53;;;;;;;17.35;9.82;;;;;;;33.22;15.01;100659.41;4987643;28;20063;-76
2021/04/20 09:58:43;;;;;;;13.60;8.05;;;;;;;34.28;14.95;100659.97;4994589;28;20085;-75
2021/04/20 10:01:47;;;;;;;16.30;9.25;;;;;;;34.94;13.12;100654.16;4991678;28;20050;-75
2021/04/20 10:04:41;;;;;;;20.58;10.30;;;;;;;34.96;12.81;100662.91;4995243;28;20034;-75
2021/04/20 10:07:48;;;;;;;22.10;10.33;;;;;;;35.22;12.66;100661.13;5007804;28;20418;-76
2021/04/20 10:10:57;;;;;;;23.73;11.30;;;;;;;34.61;10.79;100652.19;5004939;28;20042;-75
2021/04/20 10:14:09;;;;;;;18.10;11.27;;;;;;;34.52;12.60;100657.13;4979875;28;20039;-75
2021/04/20 10:17:16;;;;;;;21.00;12.45;;;;;;;35.53;12.34;100669.09;4981869;28;20043;-77
2021/04/20 10:20:36;;;;;;;23.05;12.40;;;;;;;35.70;11.46;100664.53;4964777;28;20054;-75
2021/04/20 10:23:54;;;;;;;18.10;11.70;;;;;;;30.79;12.42;100652.66;4975720;28;20043;-78
2021/04/20 10:26:53;;;;;;;25.38;13.10;;;;;;;30.05;13.67;100643.97;4973463;28;20419;-78
2021/04/20 10:29:43;;;;;;;19.35;12.00;;;;;;;30.02;13.63;100651.25;4971311;28;20407;-78
2021/04/20 10:32:36;;;;;;;19.00;12.30;;;;;;;31.49;12.58;100636.47;4998579;28;20057;-79
2021/04/20 10:35:27;;;;;;;18.27;12.30;;;;;;;31.37;12.27;100636.09;4994640;28;20038;-77
2021/04/20 10:38:15;;;;;;;30.05;12.15;;;;;;;30.80;12.86;100631.00;5001275;28;20043;-78
2021/04/20 10:41:19;;;;;;;19.75;12.88;;;;;;;35.31;9.57;100638.38;4986434;28;20050;-79
2021/04/20 10:44:11;;;;;;;76.90;14.95;;;;;;;32.95;11.73;100635.59;4995833;28;20046;-80
2021/04/20 10:46:57;;;;;;;16.77;10.68;;;;;;;32.54;11.72;100634.16;4983445;28;20042;-79
2021/04/20 10:49:50;;;;;;;21.92;10.77;;;;;;;35.86;9.65;100632.09;4997303;28;20046;-78
2021/04/20 10:52:38;;;;;;;17.50;11.80;;;;;;;31.93;12.06;100625.91;4980564;28;20039;-77
2021/04/20 10:55:28;;;;;;;18.63;11.50;;;;;;;33.21;11.87;100626.81;4964445;28;20046;-79
2021/04/20 10:58:19;;;;;;;19.95;12.77;;;;;;;33.65;11.58;100622.28;4961707;28;20039;-77
2021/04/20 11:01:05;;;;;;;36.80;13.07;;;;;;;36.78;9.70;100621.72;4980275;28;20407;-78
2021/04/20 11:03:55;;;;;;;23.83;13.70;;;;;;;34.61;10.12;100609.81;4964583;28;20558;-78
2021/04/20 11:07:02;;;;;;;23.25;13.32;;;;;;;34.50;11.28;100618.06;4988394;28;20499;-77
2021/04/20 11:09:55;;;;;;;19.92;12.65;;;;;;;35.21;10.62;100610.69;4991558;28;20038;-81
2021/04/20 11:12:45;;;;;;;25.00;11.85;;;;;;;34.67;11.24;100605.03;4981396;28;20050;-77
2021/04/20 11:15:30;;;;;;;18.70;12.48;;;;;;;34.90;11.07;100609.09;4983784;28;20042;-80
2021/04/20 11:18:21;;;;;;;19.58;11.32;;;;;;;35.45;10.46;100605.72;4992113;28;20701;-81
2021/04/20 11:21:17;;;;;;;18.15;11.82;;;;;;;34.31;11.55;100596.88;4991418;28;20042;-78
2021/04/20 11:24:13;;;;;;;20.98;12.30;;;;;;;34.95;10.32;100599.94;4993418;28;20037;-77
2021/04/20 11:27:10;;;;;;;27.50;11.63;;;;;;;35.22;10.29;100598.13;4991424;28;20035;-78
2021/04/20 11:30:08;;;;;;;24.20;11.25;;;;;;;36.52;9.73;100603.13;5005396;28;20046;-77
2021/04/20 11:32:55;;;;;;;19.88;13.73;;;;;;;37.00;9.58;100609.84;5004928;28;20045;-78
2021/04/20 11:35:46;;;;;;;17.98;13.05;;;;;;;35.89;9.69;100597.91;4995506;28;20522;-74
2021/04/20 11:38:53;;;;;;;21.48;13.60;;;;;;;36.44;9.62;100597.09;4992355;28;20041;-78
2021/04/20 11:41:58;;;;;;;23.42;14.50;;;;;;;36.19;9.48;100592.94;4988309;28;20046;-77
2021/04/20 11:44:49;;;;;;;22.65;15.18;;;;;;;38.91;7.89;100599.19;4993957;28;20034;-78
2021/04/20 11:47:35;;;;;;;24.88;15.57;;;;;;;41.15;6.93;100606.59;4993434;28;20068;-76
2021/04/20 11:50:21;;;;;;;21.30;14.75;;;;;;;38.59;7.69;100592.88;4986351;28;20049;-78
2021/04/20 11:53:10;;;;;;;19.75;13.15;;;;;;;36.79;8.70;100589.28;4988679;28;20030;-76
2021/04/20 11:56:00;;;;;;;19.63;13.43;;;;;;;37.67;8.03;100590.59;4992362;28;20030;-79
2021/04/20 11:58:47;;;;;;;17.10;11.60;;;;;;;37.45;8.17;100593.22;5003198;28;20434;-78
2021/04/20 12:01:34;;;;;;;18.45;12.10;;;;;;;36.75;7.52;100591.56;4999952;28;20412;-80
2021/04/20 12:04:46;;;;;;;14.82;10.93;;;;;;;37.64;7.64;100585.94;5006850;28;20491;-80
2021/04/20 12:07:32;;;;;;;23.70;11.43;;;;;;;39.73;6.67;100585.44;4995518;28;20042;-82
2021/04/20 12:10:19;;;;;;;17.65;12.40;;;;;;;40.35;6.52;100581.13;5001490;28;20042;-78
2021/04/20 12:13:05;;;;;;;16.48;11.10;;;;;;;41.07;6.59;100585.66;4992191;28;20046;-80
2021/04/20 12:15:56;;;;;;;17.83;11.73;;;;;;;38.07;8.50;100578.97;4995177;28;20049;-79
2021/04/20 12:18:50;;;;;;;22.27;12.38;;;;;;;40.04;7.29;100579.44;4987197;28;20053;-80
2021/04/20 12:21:39;;;;;;;19.50;12.10;;;;;;;40.48;7.25;100587.03;4980351;28;20050;-77
2021/04/20 12:24:25;;;;;;;20.20;11.68;;;;;;;40.50;6.37;100577.94;4984144;28;20043;-78
2021/04/20 12:27:11;;;;;;;17.85;12.65;;;;;;;41.01;6.04;100579.19;4981537;28;20046;-76
2021/04/20 12:29:59;;;;;;;15.82;10.90;;;;;;;39.42;6.75;100566.59;4980058;28;20407;-79
2021/04/20 12:32:44;;;;;;;15.55;11.05;;;;;;;38.39;7.05;100562.56;4983418;28;20050;-78
2021/04/20 12:35:30;;;;;;;16.98;11.00;;;;;;;38.53;7.96;100569.34;4981817;28;20042;-78
2021/04/20 12:38:20;;;;;;;13.90;9.63;;;;;;;39.20;6.67;100553.16;4979586;28;20057;-77
2021/04/20 12:41:07;;;;;;;10.13;7.72;;;;;;;38.37;7.29;100564.34;4983325;28;20057;-77
2021/04/20 12:43:56;;;;;;;13.43;9.70;;;;;;;37.24;7.66;100556.44;4981158;28;20049;-79
2021/04/20 12:46:43;;;;;;;13.45;9.90;;;;;;;39.35;6.42;100558.59;4993985;28;20060;-78
2021/04/20 12:49:30;;;;;;;16.35;10.52;;;;;;;39.77;6.35;100554.69;4999655;28;20045;-79
2021/04/20 12:52:19;;;;;;;13.38;10.30;;;;;;;40.26;5.96;100557.88;4985351;28;20053;-80
2021/04/20 12:55:09;;;;;;;12.60;9.30;;;;;;;42.66;5.10;100560.78;4996181;28;20403;-79
2021/04/20 12:57:58;;;;;;;16.35;12.57;;;;;;;41.57;5.45;100562.38;4984590;28;20041;-78
2021/04/20 13:00:45;;;;;;;14.82;10.68;;;;;;;41.04;5.74;100552.47;4982698;28;20050;-80
2021/04/20 13:03:31;;;;;;;14.13;10.43;;;;;;;41.31;5.79;100553.53;4994336;28;20042;-79
2021/04/20 13:06:18;;;;;;;15.20;11.13;;;;;;;38.72;6.93;100539.13;4997848;28;20046;-79
2021/04/20 13:09:04;;;;;;;19.98;12.05;;;;;;;40.29;5.99;100542.53;4993960;28;20122;-78
2021/04/20 13:11:52;;;;;;;13.45;9.32;;;;;;;40.03;6.56;100534.34;4978903;28;20050;-80